sensor_id;sensor_type;location;lat;lon;timestamp;temperature;humidity
40085;DHT22;25786;51.504;7.344;2023-08-01T00:01:45;17.60;92.80
40085;DHT22;25786;51.504;7.344;2023-08-01T00:04:11;17.60;92.60
40085;DHT22;25786;51.504;7.344;2023-08-01T00:06:36;17.60;92.70
40085;DHT22;25786;51.504;7.344;2023-08-01T00:09:02;17.70;92.40
40085;DHT22;25786;51.504;7.344;2023-08-01T00:11:27;17.70;91.90
40085;DHT22;25786;51.504;7.344;2023-08-01T00:13:53;17.60;91.80
40085;DHT22;25786;51.504;7.344;2023-08-01T00:16:18;17.60;91.40
40085;DHT22;25786;51.504;7.344;2023-08-01T00:18:44;17.50;91.30
40085;DHT22;25786;51.504;7.344;2023-08-01T00:21:09;17.40;91.60
40085;DHT22;25786;51.504;7.344;2023-08-01T00:23:37;17.30;91.60
40085;DHT22;25786;51.504;7.344;2023-08-01T00:26:03;17.20;91.70
40085;DHT22;25786;51.504;7.344;2023-08-01T00:28:29;17.10;92.00
40085;DHT22;25786;51.504;7.344;2023-08-01T00:31:01;17.20;92.20
40085;DHT22;25786;51.504;7.344;2023-08-01T00:33:27;17.20;92.10
40085;DHT22;25786;51.504;7.344;2023-08-01T00:35:53;17.10;92.20
40085;DHT22;25786;51.504;7.344;2023-08-01T00:38:19;17.10;92.50
40085;DHT22;25786;51.504;7.344;2023-08-01T00:40:44;17.20;92.80
40085;DHT22;25786;51.504;7.344;2023-08-01T00:43:10;17.10;92.00
40085;DHT22;25786;51.504;7.344;2023-08-01T00:45:35;17.10;92.30
40085;DHT22;25786;51.504;7.344;2023-08-01T00:48:01;17.00;92.30
40085;DHT22;25786;51.504;7.344;2023-08-01T00:50:26;17.00;91.90
40085;DHT22;25786;51.504;7.344;2023-08-01T00:52:52;16.90;92.00
40085;DHT22;25786;51.504;7.344;2023-08-01T00:55:18;16.90;92.20
40085;DHT22;25786;51.504;7.344;2023-08-01T00:57:43;16.80;92.10
40085;DHT22;25786;51.504;7.344;2023-08-01T01:00:09;16.70;92.30
40085;DHT22;25786;51.504;7.344;2023-08-01T01:02:35;16.60;92.10
40085;DHT22;25786;51.504;7.344;2023-08-01T01:05:01;16.70;92.00
40085;DHT22;25786;51.504;7.344;2023-08-01T01:07:26;16.50;92.20
40085;DHT22;25786;51.504;7.344;2023-08-01T01:09:52;16.60;92.50
40085;DHT22;25786;51.504;7.344;2023-08-01T01:12:18;16.60;92.30
40085;DHT22;25786;51.504;7.344;2023-08-01T01:14:43;16.70;92.30
40085;DHT22;25786;51.504;7.344;2023-08-01T01:17:09;16.60;92.30
40085;DHT22;25786;51.504;7.344;2023-08-01T01:19:34;16.60;92.70
40085;DHT22;25786;51.504;7.344;2023-08-01T01:22:00;16.60;92.80
40085;DHT22;25786;51.504;7.344;2023-08-01T01:24:26;16.60;93.20
40085;DHT22;25786;51.504;7.344;2023-08-01T01:26:52;16.60;92.90
40085;DHT22;25786;51.504;7.344;2023-08-01T01:29:18;16.60;92.90
40085;DHT22;25786;51.504;7.344;2023-08-01T01:31:44;16.70;92.70
40085;DHT22;25786;51.504;7.344;2023-08-01T01:34:10;16.70;92.60
40085;DHT22;25786;51.504;7.344;2023-08-01T01:36:35;16.70;92.90
40085;DHT22;25786;51.504;7.344;2023-08-01T01:39:01;16.70;92.80
40085;DHT22;25786;51.504;7.344;2023-08-01T01:41:26;16.80;92.80
40085;DHT22;25786;51.504;7.344;2023-08-01T01:43:52;16.80;92.80
40085;DHT22;25786;51.504;7.344;2023-08-01T01:46:17;16.80;92.60
40085;DHT22;25786;51.504;7.344;2023-08-01T01:48:43;16.70;92.70
40085;DHT22;25786;51.504;7.344;2023-08-01T01:51:08;16.80;92.80
40085;DHT22;25786;51.504;7.344;2023-08-01T01:53:34;16.80;92.80
40085;DHT22;25786;51.504;7.344;2023-08-01T01:55:59;16.70;92.70
40085;DHT22;25786;51.504;7.344;2023-08-01T01:58:25;16.70;92.80
40085;DHT22;25786;51.504;7.344;2023-08-01T02:00:50;16.70;92.70
40085;DHT22;25786;51.504;7.344;2023-08-01T02:03:16;16.70;92.20
40085;DHT22;25786;51.504;7.344;2023-08-01T02:05:41;16.70;91.80
40085;DHT22;25786;51.504;7.344;2023-08-01T02:08:06;16.70;92.20
40085;DHT22;25786;51.504;7.344;2023-08-01T02:10:32;16.60;92.10
40085;DHT22;25786;51.504;7.344;2023-08-01T02:12:58;16.60;92.00
40085;DHT22;25786;51.504;7.344;2023-08-01T02:15:23;16.50;92.00
40085;DHT22;25786;51.504;7.344;2023-08-01T02:17:49;16.50;92.30
40085;DHT22;25786;51.504;7.344;2023-08-01T02:20:14;16.40;92.30
40085;DHT22;25786;51.504;7.344;2023-08-01T02:22:40;16.30;91.70
40085;DHT22;25786;51.504;7.344;2023-08-01T02:25:05;16.30;91.90
40085;DHT22;25786;51.504;7.344;2023-08-01T02:27:31;16.30;92.20
40085;DHT22;25786;51.504;7.344;2023-08-01T02:29:56;16.20;92.10
40085;DHT22;25786;51.504;7.344;2023-08-01T02:32:22;16.20;92.20
40085;DHT22;25786;51.504;7.344;2023-08-01T02:34:47;16.20;92.20
40085;DHT22;25786;51.504;7.344;2023-08-01T02:37:13;16.20;92.20
40085;DHT22;25786;51.504;7.344;2023-08-01T02:39:38;16.20;92.20
40085;DHT22;25786;51.504;7.344;2023-08-01T02:42:04;16.20;92.10
40085;DHT22;25786;51.504;7.344;2023-08-01T02:44:29;16.30;92.40
40085;DHT22;25786;51.504;7.344;2023-08-01T02:46:55;16.20;92.30
40085;DHT22;25786;51.504;7.344;2023-08-01T02:49:21;16.30;92.10
40085;DHT22;25786;51.504;7.344;2023-08-01T02:51:46;16.20;92.00
40085;DHT22;25786;51.504;7.344;2023-08-01T02:54:11;16.20;92.30
40085;DHT22;25786;51.504;7.344;2023-08-01T02:56:37;16.30;92.60
40085;DHT22;25786;51.504;7.344;2023-08-01T02:59:09;16.30;92.60
40085;DHT22;25786;51.504;7.344;2023-08-01T03:01:35;16.30;91.80
40085;DHT22;25786;51.504;7.344;2023-08-01T03:04:04;16.30;91.90
40085;DHT22;25786;51.504;7.344;2023-08-01T03:06:31;16.30;92.20
40085;DHT22;25786;51.504;7.344;2023-08-01T03:08:56;16.30;92.40
40085;DHT22;25786;51.504;7.344;2023-08-01T03:11:22;16.30;92.20
40085;DHT22;25786;51.504;7.344;2023-08-01T03:13:47;16.40;92.40
40085;DHT22;25786;51.504;7.344;2023-08-01T03:16:12;16.30;92.30
40085;DHT22;25786;51.504;7.344;2023-08-01T03:18:38;16.30;92.30
40085;DHT22;25786;51.504;7.344;2023-08-01T03:21:03;16.30;92.50
40085;DHT22;25786;51.504;7.344;2023-08-01T03:23:29;16.30;92.20
40085;DHT22;25786;51.504;7.344;2023-08-01T03:25:55;16.40;92.20
40085;DHT22;25786;51.504;7.344;2023-08-01T03:28:20;16.40;92.00
40085;DHT22;25786;51.504;7.344;2023-08-01T03:30:46;16.40;91.90
40085;DHT22;25786;51.504;7.344;2023-08-01T03:33:15;16.30;92.10
40085;DHT22;25786;51.504;7.344;2023-08-01T03:35:40;16.30;92.40
40085;DHT22;25786;51.504;7.344;2023-08-01T03:38:06;16.30;92.70
40085;DHT22;25786;51.504;7.344;2023-08-01T03:40:31;16.40;92.70
40085;DHT22;25786;51.504;7.344;2023-08-01T03:42:57;16.40;92.90
40085;DHT22;25786;51.504;7.344;2023-08-01T03:45:22;16.30;92.80
40085;DHT22;25786;51.504;7.344;2023-08-01T03:47:48;16.40;93.00
40085;DHT22;25786;51.504;7.344;2023-08-01T03:50:13;16.40;92.80
40085;DHT22;25786;51.504;7.344;2023-08-01T03:52:39;16.40;92.70
40085;DHT22;25786;51.504;7.344;2023-08-01T03:55:04;16.50;92.30
40085;DHT22;25786;51.504;7.344;2023-08-01T03:57:30;16.40;92.20
40085;DHT22;25786;51.504;7.344;2023-08-01T03:59:59;16.40;92.30
40085;DHT22;25786;51.504;7.344;2023-08-01T04:02:24;16.40;92.10
40085;DHT22;25786;51.504;7.344;2023-08-01T04:04:50;16.40;91.70
40085;DHT22;25786;51.504;7.344;2023-08-01T04:07:15;16.40;92.20
40085;DHT22;25786;51.504;7.344;2023-08-01T04:09:40;16.40;91.90
40085;DHT22;25786;51.504;7.344;2023-08-01T04:12:06;16.40;91.80
40085;DHT22;25786;51.504;7.344;2023-08-01T04:14:32;16.30;91.80
40085;DHT22;25786;51.504;7.344;2023-08-01T04:16:57;16.30;91.90
40085;DHT22;25786;51.504;7.344;2023-08-01T04:19:23;16.30;91.70
40085;DHT22;25786;51.504;7.344;2023-08-01T04:21:50;16.30;91.20
40085;DHT22;25786;51.504;7.344;2023-08-01T04:24:15;16.20;91.20
40085;DHT22;25786;51.504;7.344;2023-08-01T04:26:41;16.10;91.50
40085;DHT22;25786;51.504;7.344;2023-08-01T04:29:06;16.20;91.40
40085;DHT22;25786;51.504;7.344;2023-08-01T04:31:32;16.20;91.60
40085;DHT22;25786;51.504;7.344;2023-08-01T04:33:57;16.20;91.60
40085;DHT22;25786;51.504;7.344;2023-08-01T04:36:31;16.20;91.90
40085;DHT22;25786;51.504;7.344;2023-08-01T04:38:57;16.30;91.50
40085;DHT22;25786;51.504;7.344;2023-08-01T04:41:22;16.20;91.50
40085;DHT22;25786;51.504;7.344;2023-08-01T04:43:48;16.20;91.60
40085;DHT22;25786;51.504;7.344;2023-08-01T04:46:13;16.20;91.50
40085;DHT22;25786;51.504;7.344;2023-08-01T04:48:42;16.20;91.50
40085;DHT22;25786;51.504;7.344;2023-08-01T04:51:07;16.10;91.60
40085;DHT22;25786;51.504;7.344;2023-08-01T04:53:33;16.20;91.50
40085;DHT22;25786;51.504;7.344;2023-08-01T04:55:58;16.20;91.60
40085;DHT22;25786;51.504;7.344;2023-08-01T04:58:24;16.20;91.30
40085;DHT22;25786;51.504;7.344;2023-08-01T05:00:49;16.20;91.30
40085;DHT22;25786;51.504;7.344;2023-08-01T05:03:15;16.10;91.10
40085;DHT22;25786;51.504;7.344;2023-08-01T05:05:40;16.10;90.90
40085;DHT22;25786;51.504;7.344;2023-08-01T05:08:06;16.20;91.00
40085;DHT22;25786;51.504;7.344;2023-08-01T05:10:31;16.10;91.10
40085;DHT22;25786;51.504;7.344;2023-08-01T05:12:57;16.10;90.70
40085;DHT22;25786;51.504;7.344;2023-08-01T05:15:22;16.10;90.90
40085;DHT22;25786;51.504;7.344;2023-08-01T05:17:47;16.10;91.10
40085;DHT22;25786;51.504;7.344;2023-08-01T05:20:13;16.10;91.30
40085;DHT22;25786;51.504;7.344;2023-08-01T05:22:39;16.10;91.30
40085;DHT22;25786;51.504;7.344;2023-08-01T05:25:04;16.10;91.20
40085;DHT22;25786;51.504;7.344;2023-08-01T05:27:30;16.10;91.10
40085;DHT22;25786;51.504;7.344;2023-08-01T05:29:55;16.10;90.90
40085;DHT22;25786;51.504;7.344;2023-08-01T05:32:21;16.10;91.10
40085;DHT22;25786;51.504;7.344;2023-08-01T05:34:46;16.10;91.10
40085;DHT22;25786;51.504;7.344;2023-08-01T05:37:12;16.10;91.30
40085;DHT22;25786;51.504;7.344;2023-08-01T05:39:37;16.20;91.30
40085;DHT22;25786;51.504;7.344;2023-08-01T05:42:03;16.10;91.20
40085;DHT22;25786;51.504;7.344;2023-08-01T05:44:33;16.20;91.10
40085;DHT22;25786;51.504;7.344;2023-08-01T05:46:59;16.20;90.90
40085;DHT22;25786;51.504;7.344;2023-08-01T05:49:26;16.20;91.00
40085;DHT22;25786;51.504;7.344;2023-08-01T05:51:53;16.20;90.70
40085;DHT22;25786;51.504;7.344;2023-08-01T05:54:18;16.20;91.10
40085;DHT22;25786;51.504;7.344;2023-08-01T05:56:44;16.20;91.10
40085;DHT22;25786;51.504;7.344;2023-08-01T05:59:09;16.30;91.50
40085;DHT22;25786;51.504;7.344;2023-08-01T06:01:35;16.30;91.00
40085;DHT22;25786;51.504;7.344;2023-08-01T06:04:00;16.30;90.90
40085;DHT22;25786;51.504;7.344;2023-08-01T06:06:26;16.30;90.70
40085;DHT22;25786;51.504;7.344;2023-08-01T06:08:51;16.30;90.70
40085;DHT22;25786;51.504;7.344;2023-08-01T06:11:17;16.40;90.60
40085;DHT22;25786;51.504;7.344;2023-08-01T06:13:42;16.40;90.60
40085;DHT22;25786;51.504;7.344;2023-08-01T06:16:08;16.40;91.10
40085;DHT22;25786;51.504;7.344;2023-08-01T06:18:33;16.30;91.00
40085;DHT22;25786;51.504;7.344;2023-08-01T06:20:59;16.30;90.90
40085;DHT22;25786;51.504;7.344;2023-08-01T06:23:24;16.30;90.50
40085;DHT22;25786;51.504;7.344;2023-08-01T06:25:50;16.20;90.80
40085;DHT22;25786;51.504;7.344;2023-08-01T06:28:15;16.20;91.10
40085;DHT22;25786;51.504;7.344;2023-08-01T06:30:41;16.20;91.20
40085;DHT22;25786;51.504;7.344;2023-08-01T06:33:06;16.10;91.10
40085;DHT22;25786;51.504;7.344;2023-08-01T06:35:31;16.20;91.30
40085;DHT22;25786;51.504;7.344;2023-08-01T06:37:57;16.20;91.00
40085;DHT22;25786;51.504;7.344;2023-08-01T06:40:22;16.20;91.10
40085;DHT22;25786;51.504;7.344;2023-08-01T06:42:48;16.30;91.20
40085;DHT22;25786;51.504;7.344;2023-08-01T06:45:14;16.30;90.90
40085;DHT22;25786;51.504;7.344;2023-08-01T06:47:39;16.40;90.90
40085;DHT22;25786;51.504;7.344;2023-08-01T06:50:05;16.60;91.00
40085;DHT22;25786;51.504;7.344;2023-08-01T06:52:31;16.70;90.50
40085;DHT22;25786;51.504;7.344;2023-08-01T06:54:57;16.80;89.80
40085;DHT22;25786;51.504;7.344;2023-08-01T06:57:22;16.80;89.40
40085;DHT22;25786;51.504;7.344;2023-08-01T06:59:47;16.90;89.90
40085;DHT22;25786;51.504;7.344;2023-08-01T07:02:13;17.00;89.40
40085;DHT22;25786;51.504;7.344;2023-08-01T07:04:38;17.00;89.40
40085;DHT22;25786;51.504;7.344;2023-08-01T07:07:04;17.00;89.70
40085;DHT22;25786;51.504;7.344;2023-08-01T07:09:29;17.00;89.50
40085;DHT22;25786;51.504;7.344;2023-08-01T07:11:55;17.00;89.20
40085;DHT22;25786;51.504;7.344;2023-08-01T07:14:20;17.00;89.60
40085;DHT22;25786;51.504;7.344;2023-08-01T07:16:46;17.00;89.20
40085;DHT22;25786;51.504;7.344;2023-08-01T07:19:11;16.90;89.10
40085;DHT22;25786;51.504;7.344;2023-08-01T07:21:36;17.00;89.10
40085;DHT22;25786;51.504;7.344;2023-08-01T07:24:02;16.90;88.70
40085;DHT22;25786;51.504;7.344;2023-08-01T07:26:27;16.90;89.40
40085;DHT22;25786;51.504;7.344;2023-08-01T07:28:54;16.80;89.30
40085;DHT22;25786;51.504;7.344;2023-08-01T07:31:20;16.70;89.30
40085;DHT22;25786;51.504;7.344;2023-08-01T07:33:45;16.70;89.60
40085;DHT22;25786;51.504;7.344;2023-08-01T07:36:11;16.60;89.60
40085;DHT22;25786;51.504;7.344;2023-08-01T07:38:36;16.70;89.60
40085;DHT22;25786;51.504;7.344;2023-08-01T07:41:02;16.70;89.70
40085;DHT22;25786;51.504;7.344;2023-08-01T07:43:29;16.90;89.50
40085;DHT22;25786;51.504;7.344;2023-08-01T07:45:55;16.90;89.50
40085;DHT22;25786;51.504;7.344;2023-08-01T07:48:20;17.00;89.10
40085;DHT22;25786;51.504;7.344;2023-08-01T07:50:46;17.10;88.90
40085;DHT22;25786;51.504;7.344;2023-08-01T07:53:11;17.10;88.90
40085;DHT22;25786;51.504;7.344;2023-08-01T07:55:37;17.10;88.80
40085;DHT22;25786;51.504;7.344;2023-08-01T07:58:03;17.20;88.00
40085;DHT22;25786;51.504;7.344;2023-08-01T08:00:29;17.20;88.40
40085;DHT22;25786;51.504;7.344;2023-08-01T08:02:57;17.50;88.50
40085;DHT22;25786;51.504;7.344;2023-08-01T08:05:22;17.60;88.20
40085;DHT22;25786;51.504;7.344;2023-08-01T08:07:48;17.70;87.80
40085;DHT22;25786;51.504;7.344;2023-08-01T08:10:16;17.80;87.00
40085;DHT22;25786;51.504;7.344;2023-08-01T08:12:45;17.60;87.10
40085;DHT22;25786;51.504;7.344;2023-08-01T08:15:10;17.60;87.10
40085;DHT22;25786;51.504;7.344;2023-08-01T08:17:36;17.70;86.80
40085;DHT22;25786;51.504;7.344;2023-08-01T08:20:01;17.80;86.70
40085;DHT22;25786;51.504;7.344;2023-08-01T08:22:34;17.70;87.00
40085;DHT22;25786;51.504;7.344;2023-08-01T08:25:00;17.80;86.10
40085;DHT22;25786;51.504;7.344;2023-08-01T08:27:25;17.80;86.10
40085;DHT22;25786;51.504;7.344;2023-08-01T08:29:53;17.80;86.00
40085;DHT22;25786;51.504;7.344;2023-08-01T08:32:21;17.80;85.70
40085;DHT22;25786;51.504;7.344;2023-08-01T08:34:47;17.80;85.50
40085;DHT22;25786;51.504;7.344;2023-08-01T08:37:12;18.00;85.70
40085;DHT22;25786;51.504;7.344;2023-08-01T08:42:55;18.00;84.90
40085;DHT22;25786;51.504;7.344;2023-08-01T08:45:21;18.10;85.20
40085;DHT22;25786;51.504;7.344;2023-08-01T08:47:48;18.20;85.20
40085;DHT22;25786;51.504;7.344;2023-08-01T08:50:18;18.40;84.60
40085;DHT22;25786;51.504;7.344;2023-08-01T08:52:44;18.40;84.20
40085;DHT22;25786;51.504;7.344;2023-08-01T08:55:10;18.40;84.60
40085;DHT22;25786;51.504;7.344;2023-08-01T08:57:36;18.30;84.60
40085;DHT22;25786;51.504;7.344;2023-08-01T09:00:02;18.10;84.00
40085;DHT22;25786;51.504;7.344;2023-08-01T09:02:30;18.00;84.30
40085;DHT22;25786;51.504;7.344;2023-08-01T09:04:56;17.90;83.80
40085;DHT22;25786;51.504;7.344;2023-08-01T09:07:23;18.00;84.60
40085;DHT22;25786;51.504;7.344;2023-08-01T09:09:49;17.90;84.10
40085;DHT22;25786;51.504;7.344;2023-08-01T09:12:15;17.80;84.60
40085;DHT22;25786;51.504;7.344;2023-08-01T09:14:41;17.70;85.90
40085;DHT22;25786;51.504;7.344;2023-08-01T09:17:07;17.70;86.90
40085;DHT22;25786;51.504;7.344;2023-08-01T09:19:33;17.60;87.00
40085;DHT22;25786;51.504;7.344;2023-08-01T09:21:58;17.50;86.80
40085;DHT22;25786;51.504;7.344;2023-08-01T09:24:24;17.40;87.30
40085;DHT22;25786;51.504;7.344;2023-08-01T09:26:49;17.50;86.90
40085;DHT22;25786;51.504;7.344;2023-08-01T09:29:15;17.60;88.20
40085;DHT22;25786;51.504;7.344;2023-08-01T09:31:44;17.90;87.70
40085;DHT22;25786;51.504;7.344;2023-08-01T09:34:20;18.00;88.30
40085;DHT22;25786;51.504;7.344;2023-08-01T09:36:46;18.20;87.60
40085;DHT22;25786;51.504;7.344;2023-08-01T09:39:16;18.50;86.60
40085;DHT22;25786;51.504;7.344;2023-08-01T09:41:41;18.60;85.50
40085;DHT22;25786;51.504;7.344;2023-08-01T09:44:10;18.70;84.50
40085;DHT22;25786;51.504;7.344;2023-08-01T09:46:35;18.90;82.70
40085;DHT22;25786;51.504;7.344;2023-08-01T09:49:07;19.00;82.00
40085;DHT22;25786;51.504;7.344;2023-08-01T09:51:33;19.00;81.60
40085;DHT22;25786;51.504;7.344;2023-08-01T09:54:02;19.00;82.30
40085;DHT22;25786;51.504;7.344;2023-08-01T09:56:28;18.80;79.20
40085;DHT22;25786;51.504;7.344;2023-08-01T09:58:55;18.60;80.90
40085;DHT22;25786;51.504;7.344;2023-08-01T10:01:22;18.50;80.40
40085;DHT22;25786;51.504;7.344;2023-08-01T10:03:49;18.60;81.80
40085;DHT22;25786;51.504;7.344;2023-08-01T10:06:24;18.80;81.30
40085;DHT22;25786;51.504;7.344;2023-08-01T10:08:53;18.70;80.40
40085;DHT22;25786;51.504;7.344;2023-08-01T10:11:21;18.90;80.10
40085;DHT22;25786;51.504;7.344;2023-08-01T10:13:50;19.10;80.20
40085;DHT22;25786;51.504;7.344;2023-08-01T10:16:36;19.20;78.60
40085;DHT22;25786;51.504;7.344;2023-08-01T10:19:05;19.30;78.50
40085;DHT22;25786;51.504;7.344;2023-08-01T10:21:31;19.30;78.00
40085;DHT22;25786;51.504;7.344;2023-08-01T10:23:57;19.40;77.90
40085;DHT22;25786;51.504;7.344;2023-08-01T10:26:23;19.40;76.20
40085;DHT22;25786;51.504;7.344;2023-08-01T10:28:50;19.40;77.00
40085;DHT22;25786;51.504;7.344;2023-08-01T10:31:29;19.20;76.70
40085;DHT22;25786;51.504;7.344;2023-08-01T10:34:05;19.20;78.00
40085;DHT22;25786;51.504;7.344;2023-08-01T10:36:31;19.10;79.90
40085;DHT22;25786;51.504;7.344;2023-08-01T10:38:58;19.00;78.40
40085;DHT22;25786;51.504;7.344;2023-08-01T10:41:28;18.60;83.20
40085;DHT22;25786;51.504;7.344;2023-08-01T10:49:15;17.70;87.00
40085;DHT22;25786;51.504;7.344;2023-08-01T10:51:41;17.70;87.90
40085;DHT22;25786;51.504;7.344;2023-08-01T10:54:17;17.80;88.30
40085;DHT22;25786;51.504;7.344;2023-08-01T10:56:44;17.80;88.40
40085;DHT22;25786;51.504;7.344;2023-08-01T10:59:10;18.00;88.70
40085;DHT22;25786;51.504;7.344;2023-08-01T11:01:43;18.10;88.50
40085;DHT22;25786;51.504;7.344;2023-08-01T11:04:14;18.10;88.70
40085;DHT22;25786;51.504;7.344;2023-08-01T11:06:44;18.20;88.10
40085;DHT22;25786;51.504;7.344;2023-08-01T11:09:17;18.20;88.20
40085;DHT22;25786;51.504;7.344;2023-08-01T11:11:43;18.20;88.50
40085;DHT22;25786;51.504;7.344;2023-08-01T11:14:08;18.40;88.50
40085;DHT22;25786;51.504;7.344;2023-08-01T11:16:34;18.60;86.40
40085;DHT22;25786;51.504;7.344;2023-08-01T11:19:02;18.80;86.10
40085;DHT22;25786;51.504;7.344;2023-08-01T11:21:27;18.70;86.10
40085;DHT22;25786;51.504;7.344;2023-08-01T11:23:53;18.60;85.70
40085;DHT22;25786;51.504;7.344;2023-08-01T11:26:18;18.10;85.40
40085;DHT22;25786;51.504;7.344;2023-08-01T11:28:44;17.60;87.30
40085;DHT22;25786;51.504;7.344;2023-08-01T11:31:12;17.20;88.00
40085;DHT22;25786;51.504;7.344;2023-08-01T11:33:38;17.20;89.00
40085;DHT22;25786;51.504;7.344;2023-08-01T11:36:04;17.20;88.50
40085;DHT22;25786;51.504;7.344;2023-08-01T11:38:31;17.30;88.80
40085;DHT22;25786;51.504;7.344;2023-08-01T11:40:58;17.30;88.80
40085;DHT22;25786;51.504;7.344;2023-08-01T11:43:24;17.50;89.30
40085;DHT22;25786;51.504;7.344;2023-08-01T11:45:50;17.50;88.80
40085;DHT22;25786;51.504;7.344;2023-08-01T11:48:16;17.50;88.90
40085;DHT22;25786;51.504;7.344;2023-08-01T11:50:42;17.50;88.20
40085;DHT22;25786;51.504;7.344;2023-08-01T11:53:17;17.60;88.20
40085;DHT22;25786;51.504;7.344;2023-08-01T11:55:42;17.60;86.90
40085;DHT22;25786;51.504;7.344;2023-08-01T11:58:08;17.80;87.30
40085;DHT22;25786;51.504;7.344;2023-08-01T12:00:33;17.80;87.50
40085;DHT22;25786;51.504;7.344;2023-08-01T12:05:30;18.00;88.00
40085;DHT22;25786;51.504;7.344;2023-08-01T12:07:56;18.30;88.80
40085;DHT22;25786;51.504;7.344;2023-08-01T12:10:21;18.60;89.30
40085;DHT22;25786;51.504;7.344;2023-08-01T12:12:47;18.80;87.60
40085;DHT22;25786;51.504;7.344;2023-08-01T12:15:14;18.80;85.90
40085;DHT22;25786;51.504;7.344;2023-08-01T12:17:39;18.80;86.10
40085;DHT22;25786;51.504;7.344;2023-08-01T12:20:05;18.80;85.10
40085;DHT22;25786;51.504;7.344;2023-08-01T12:22:31;18.80;86.00
40085;DHT22;25786;51.504;7.344;2023-08-01T12:24:56;18.90;86.10
40085;DHT22;25786;51.504;7.344;2023-08-01T12:27:22;18.90;85.50
40085;DHT22;25786;51.504;7.344;2023-08-01T12:29:47;18.90;85.80
40085;DHT22;25786;51.504;7.344;2023-08-01T12:32:12;19.00;84.40
40085;DHT22;25786;51.504;7.344;2023-08-01T12:34:39;19.00;84.70
40085;DHT22;25786;51.504;7.344;2023-08-01T12:37:04;19.00;81.50
40085;DHT22;25786;51.504;7.344;2023-08-01T12:39:30;19.00;82.40
40085;DHT22;25786;51.504;7.344;2023-08-01T12:41:55;19.00;81.60
40085;DHT22;25786;51.504;7.344;2023-08-01T12:44:21;19.10;81.70
40085;DHT22;25786;51.504;7.344;2023-08-01T12:46:47;19.10;79.40
40085;DHT22;25786;51.504;7.344;2023-08-01T12:49:12;19.20;81.60
40085;DHT22;25786;51.504;7.344;2023-08-01T12:51:38;19.30;82.10
40085;DHT22;25786;51.504;7.344;2023-08-01T12:54:03;19.30;82.10
40085;DHT22;25786;51.504;7.344;2023-08-01T12:56:29;19.30;81.30
40085;DHT22;25786;51.504;7.344;2023-08-01T12:58:54;19.30;81.20
40085;DHT22;25786;51.504;7.344;2023-08-01T13:01:19;19.30;80.80
40085;DHT22;25786;51.504;7.344;2023-08-01T13:03:45;19.40;81.00
40085;DHT22;25786;51.504;7.344;2023-08-01T13:06:11;19.40;80.90
40085;DHT22;25786;51.504;7.344;2023-08-01T13:08:37;19.50;80.30
40085;DHT22;25786;51.504;7.344;2023-08-01T13:11:09;19.40;79.80
40085;DHT22;25786;51.504;7.344;2023-08-01T13:13:34;19.10;80.70
40085;DHT22;25786;51.504;7.344;2023-08-01T13:16:00;19.10;81.30
40085;DHT22;25786;51.504;7.344;2023-08-01T13:18:25;19.10;81.90
40085;DHT22;25786;51.504;7.344;2023-08-01T13:20:51;19.20;81.90
40085;DHT22;25786;51.504;7.344;2023-08-01T13:23:16;19.20;81.00
40085;DHT22;25786;51.504;7.344;2023-08-01T13:25:42;19.30;80.70
40085;DHT22;25786;51.504;7.344;2023-08-01T13:28:07;19.30;80.50
40085;DHT22;25786;51.504;7.344;2023-08-01T13:30:33;19.30;81.00
40085;DHT22;25786;51.504;7.344;2023-08-01T13:32:58;19.40;81.60
40085;DHT22;25786;51.504;7.344;2023-08-01T13:35:24;19.50;80.50
40085;DHT22;25786;51.504;7.344;2023-08-01T13:37:49;19.50;80.60
40085;DHT22;25786;51.504;7.344;2023-08-01T13:40:15;19.40;79.20
40085;DHT22;25786;51.504;7.344;2023-08-01T13:42:40;19.50;78.90
40085;DHT22;25786;51.504;7.344;2023-08-01T13:45:06;19.60;76.70
40085;DHT22;25786;51.504;7.344;2023-08-01T13:47:32;19.80;77.00
40085;DHT22;25786;51.504;7.344;2023-08-01T13:49:57;19.90;76.20
40085;DHT22;25786;51.504;7.344;2023-08-01T13:52:23;19.90;75.60
40085;DHT22;25786;51.504;7.344;2023-08-01T13:54:48;20.00;73.70
40085;DHT22;25786;51.504;7.344;2023-08-01T13:57:14;20.10;71.90
40085;DHT22;25786;51.504;7.344;2023-08-01T13:59:39;19.90;72.90
40085;DHT22;25786;51.504;7.344;2023-08-01T14:02:04;20.00;72.80
40085;DHT22;25786;51.504;7.344;2023-08-01T14:04:30;20.00;72.90
40085;DHT22;25786;51.504;7.344;2023-08-01T14:06:55;20.00;73.40
40085;DHT22;25786;51.504;7.344;2023-08-01T14:09:21;20.00;72.50
40085;DHT22;25786;51.504;7.344;2023-08-01T14:11:46;20.10;72.20
40085;DHT22;25786;51.504;7.344;2023-08-01T14:14:12;20.20;72.90
40085;DHT22;25786;51.504;7.344;2023-08-01T14:16:37;20.40;72.60
40085;DHT22;25786;51.504;7.344;2023-08-01T14:19:03;20.50;72.10
40085;DHT22;25786;51.504;7.344;2023-08-01T14:21:29;20.60;71.50
40085;DHT22;25786;51.504;7.344;2023-08-01T14:23:54;20.60;72.20
40085;DHT22;25786;51.504;7.344;2023-08-01T14:26:20;20.70;72.50
40085;DHT22;25786;51.504;7.344;2023-08-01T14:28:45;20.80;70.30
40085;DHT22;25786;51.504;7.344;2023-08-01T14:31:11;20.80;71.10
40085;DHT22;25786;51.504;7.344;2023-08-01T14:33:37;20.70;72.80
40085;DHT22;25786;51.504;7.344;2023-08-01T14:36:02;20.60;68.50
40085;DHT22;25786;51.504;7.344;2023-08-01T14:38:32;20.60;68.70
40085;DHT22;25786;51.504;7.344;2023-08-01T14:40:57;20.60;69.40
40085;DHT22;25786;51.504;7.344;2023-08-01T14:43:23;20.60;68.70
40085;DHT22;25786;51.504;7.344;2023-08-01T14:45:48;20.70;67.70
40085;DHT22;25786;51.504;7.344;2023-08-01T14:48:14;20.70;67.10
40085;DHT22;25786;51.504;7.344;2023-08-01T14:50:39;20.50;65.70
40085;DHT22;25786;51.504;7.344;2023-08-01T14:53:04;20.40;65.20
40085;DHT22;25786;51.504;7.344;2023-08-01T14:55:32;20.30;65.70
40085;DHT22;25786;51.504;7.344;2023-08-01T14:57:57;20.30;66.10
40085;DHT22;25786;51.504;7.344;2023-08-01T15:00:23;20.20;66.20
40085;DHT22;25786;51.504;7.344;2023-08-01T15:02:48;20.10;65.70
40085;DHT22;25786;51.504;7.344;2023-08-01T15:05:14;20.10;66.10
40085;DHT22;25786;51.504;7.344;2023-08-01T15:07:40;20.00;67.40
40085;DHT22;25786;51.504;7.344;2023-08-01T15:10:05;20.00;66.90
40085;DHT22;25786;51.504;7.344;2023-08-01T15:12:31;19.90;68.60
40085;DHT22;25786;51.504;7.344;2023-08-01T15:14:56;20.00;67.50
40085;DHT22;25786;51.504;7.344;2023-08-01T15:17:22;20.00;66.50
40085;DHT22;25786;51.504;7.344;2023-08-01T15:19:48;20.00;67.40
40085;DHT22;25786;51.504;7.344;2023-08-01T15:22:14;20.00;67.70
40085;DHT22;25786;51.504;7.344;2023-08-01T15:24:39;20.00;68.50
40085;DHT22;25786;51.504;7.344;2023-08-01T15:27:05;20.10;66.90
40085;DHT22;25786;51.504;7.344;2023-08-01T15:29:30;20.00;69.30
40085;DHT22;25786;51.504;7.344;2023-08-01T15:31:56;20.00;66.70
40085;DHT22;25786;51.504;7.344;2023-08-01T15:34:21;20.00;65.80